Time;durP1;ratioP1;P1;durP2;ratioP2;P2;SDS_P1;SDS_P2;PMS_P1;PMS_P2;Temp;Humidity;BMP_temperature;BMP_pressure;BME280_temperature;BME280_humidity;BME280_pressure;Samples;Min_cycle;Max_cycle;Signal;HPM_P1;HPM_P2
2023/01/15 00:01:18;;;;;;;1.80;1.30;;;;;;;;;;5021977;28;20205;-73
2023/01/15 00:03:45;;;;;;;1.80;1.20;;;;;;;;;;5023568;28;20608;-74
2023/01/15 00:06:11;;;;;;;1.30;1.07;;;;;;;;;;5028336;28;20221;-76
2023/01/15 00:08:38;;;;;;;1.10;0.97;;;;;;;;;;5026390;28;20214;-75
2023/01/15 00:11:05;;;;;;;3.40;2.03;;;;;;;;;;5027214;28;20190;-73
2023/01/15 00:13:31;;;;;;;2.07;1.30;;;;;;;;;;5051490;23;20303;-74
2023/01/15 00:16:07;;;;;;;0.90;0.80;;;;;;;;;;5041493;28;20185;-74
2023/01/15 00:18:34;;;;;;;1.73;1.10;;;;;;;;;;5038627;28;20698;-74
2023/01/15 00:21:01;;;;;;;3.43;1.17;;;;;;;;;;5039967;28;20174;-74
2023/01/15 00:29:02;;;;;;;5.53;2.90;;;;;;;;;;5026449;28;20229;-74
2023/01/15 00:31:29;;;;;;;1.87;1.23;;;;;;;;;;5022406;28;20210;-74
2023/01/15 00:33:55;;;;;;;2.47;1.53;;;;;;;;;;5017907;28;20240;-74
2023/01/15 00:36:21;;;;;;;2.17;1.23;;;;;;;;;;5018887;28;20199;-74
2023/01/15 00:38:48;;;;;;;2.53;1.40;;;;;;;;;;5025767;28;20229;-74
2023/01/15 00:41:14;;;;;;;1.20;1.03;;;;;;;;;;5026402;28;20187;-74
2023/01/15 00:43:40;;;;;;;2.43;1.20;;;;;;;;;;5022005;28;20673;-74
2023/01/15 00:46:07;;;;;;;2.67;1.90;;;;;;;;;;5017841;28;20182;-74
2023/01/15 00:48:34;;;;;;;1.70;1.10;;;;;;;;;;5023644;28;20186;-74
2023/01/15 00:51:00;;;;;;;1.80;1.10;;;;;;;;;;5018627;28;20232;-74
2023/01/15 00:53:26;;;;;;;1.23;1.13;;;;;;;;;;5015569;28;20969;-74
2023/01/15 00:55:53;;;;;;;1.17;1.00;;;;;;;;;;5019573;28;20558;-74
2023/01/15 00:58:19;;;;;;;1.10;1.00;;;;;;;;;;5028490;28;20216;-74
2023/01/15 01:00:45;;;;;;;2.03;1.00;;;;;;;;;;5024465;28;20298;-75
2023/01/15 01:03:13;;;;;;;2.30;1.40;;;;;;;;;;5006962;28;20271;-74
2023/01/15 01:05:39;;;;;;;1.70;1.10;;;;;;;;;;5017602;28;20562;-75
2023/01/15 01:08:05;;;;;;;1.97;1.13;;;;;;;;;;5027964;28;20727;-74
2023/01/15 01:10:32;;;;;;;1.93;1.10;;;;;;;;;;5026262;28;20181;-74
2023/01/15 01:12:58;;;;;;;2.00;1.23;;;;;;;;;;5020439;28;20217;-74
2023/01/15 01:15:24;;;;;;;1.10;1.00;;;;;;;;;;5017033;28;20191;-74
2023/01/15 01:17:51;;;;;;;2.13;1.10;;;;;;;;;;5022499;28;20214;-74
2023/01/15 01:20:18;;;;;;;1.30;1.20;;;;;;;;;;5019595;28;20179;-74
2023/01/15 01:22:48;;;;;;;1.27;0.90;;;;;;;;;;5020609;28;20307;-74
2023/01/15 01:25:14;;;;;;;1.33;1.00;;;;;;;;;;5019244;28;20183;-74
2023/01/15 01:27:43;;;;;;;1.47;0.90;;;;;;;;;;5019996;28;20186;-74
2023/01/15 01:30:10;;;;;;;0.80;0.80;;;;;;;;;;5010031;28;20209;-74
2023/01/15 01:32:36;;;;;;;1.50;0.90;;;;;;;;;;5024418;28;20209;-74
2023/01/15 01:35:02;;;;;;;1.70;0.97;;;;;;;;;;5019184;28;20186;-74
2023/01/15 01:37:29;;;;;;;1.77;0.90;;;;;;;;;;5014185;28;20211;-74
2023/01/15 01:39:55;;;;;;;1.50;1.40;;;;;;;;;;5006009;28;20185;-74
2023/01/15 01:42:21;;;;;;;1.93;1.00;;;;;;;;;;5025752;28;20661;-72
2023/01/15 01:44:48;;;;;;;1.10;1.00;;;;;;;;;;5019616;28;20182;-73
2023/01/15 01:47:19;;;;;;;1.00;0.90;;;;;;;;;;5021844;28;20536;-73
2023/01/15 01:49:47;;;;;;;1.23;0.80;;;;;;;;;;5024525;28;20181;-73
2023/01/15 01:52:15;;;;;;;1.13;0.80;;;;;;;;;;5010416;28;20758;-74
2023/01/15 01:54:41;;;;;;;0.80;0.80;;;;;;;;;;5026044;28;20236;-73
2023/01/15 01:57:08;;;;;;;1.83;1.13;;;;;;;;;;5016493;28;20198;-73
2023/01/15 01:59:35;;;;;;;1.20;0.93;;;;;;;;;;5022326;28;20209;-73
2023/01/15 02:02:02;;;;;;;1.50;0.90;;;;;;;;;;5023950;28;20207;-73
2023/01/15 02:04:30;;;;;;;1.20;1.10;;;;;;;;;;5017256;28;20598;-73
2023/01/15 02:06:58;;;;;;;1.13;0.90;;;;;;;;;;5007903;28;20928;-73
2023/01/15 02:09:24;;;;;;;1.27;0.90;;;;;;;;;;5012931;28;20183;-73
2023/01/15 02:11:55;;;;;;;1.77;1.00;;;;;;;;;;5014762;28;20210;-73
2023/01/15 02:14:22;;;;;;;1.10;1.00;;;;;;;;;;5021142;28;20190;-74
2023/01/15 02:16:54;;;;;;;1.03;0.90;;;;;;;;;;5015277;28;20233;-73
2023/01/15 02:19:37;;;;;;;1.70;1.03;;;;;;;;;;5019397;28;20221;-73
2023/01/15 02:22:10;;;;;;;2.53;0.90;;;;;;;;;;5024572;28;20865;-73
2023/01/15 02:24:39;;;;;;;0.90;0.90;;;;;;;;;;5022477;28;20171;-73
2023/01/15 02:27:05;;;;;;;1.30;1.10;;;;;;;;;;5008500;28;20179;-74
2023/01/15 02:29:53;;;;;;;1.00;0.90;;;;;;;;;;5017437;28;20179;-73
2023/01/15 02:32:29;;;;;;;1.73;1.10;;;;;;;;;;5013827;28;20209;-73
2023/01/15 02:34:58;;;;;;;1.80;1.00;;;;;;;;;;5023748;28;20672;-74
2023/01/15 02:37:30;;;;;;;3.43;1.30;;;;;;;;;;5016539;28;20232;-74
2023/01/15 02:39:57;;;;;;;1.87;1.10;;;;;;;;;;5017292;28;20314;-73
2023/01/15 02:42:26;;;;;;;1.53;1.00;;;;;;;;;;5003610;28;20229;-73
2023/01/15 02:44:54;;;;;;;3.23;1.10;;;;;;;;;;5022486;28;20281;-74
2023/01/15 02:47:24;;;;;;;0.97;0.97;;;;;;;;;;5037726;28;20218;-73
2023/01/15 02:49:51;;;;;;;2.80;1.73;;;;;;;;;;5019260;28;20598;-73
2023/01/15 02:52:29;;;;;;;1.37;1.00;;;;;;;;;;5020892;28;20210;-73
2023/01/15 02:54:59;;;;;;;1.73;1.10;;;;;;;;;;5022969;28;20262;-73
2023/01/15 02:57:29;;;;;;;0.70;0.70;;;;;;;;;;4998038;28;20242;-73
2023/01/15 02:59:58;;;;;;;0.53;0.50;;;;;;;;;;5017261;28;20183;-73
2023/01/15 03:02:27;;;;;;;0.30;0.30;;;;;;;;;;5017231;28;20751;-73
2023/01/15 03:04:58;;;;;;;1.53;0.50;;;;;;;;;;4998628;28;20191;-73
2023/01/15 03:07:37;;;;;;;1.70;0.50;;;;;;;;;;5020256;28;20669;-73
2023/01/15 03:10:04;;;;;;;0.73;0.40;;;;;;;;;;5024962;28;20201;-73
2023/01/15 03:13:02;;;;;;;0.70;0.50;;;;;;;;;;5016926;28;20600;-73
2023/01/15 03:18:22;;;;;;;0.70;0.40;;;;;;;;;;5018766;28;20230;-73
2023/01/15 03:20:51;;;;;;;0.50;0.50;;;;;;;;;;4992773;28;20279;-73
2023/01/15 03:23:20;;;;;;;2.00;0.60;;;;;;;;;;5021320;28;20288;-73
2023/01/15 03:25:48;;;;;;;0.50;0.50;;;;;;;;;;5016017;28;20709;-73
2023/01/15 03:28:17;;;;;;;0.97;0.40;;;;;;;;;;5023260;28;20198;-73
2023/01/15 03:30:47;;;;;;;0.57;0.50;;;;;;;;;;5019085;28;20199;-73
2023/01/15 03:33:14;;;;;;;0.47;0.47;;;;;;;;;;5013873;28;20870;-73
2023/01/15 03:35:46;;;;;;;0.40;0.40;;;;;;;;;;5013070;28;20190;-73
2023/01/15 03:38:24;;;;;;;0.30;0.30;;;;;;;;;;5020031;28;20248;-73
2023/01/15 03:40:57;;;;;;;1.07;0.40;;;;;;;;;;5027392;28;20178;-73
2023/01/15 03:43:41;;;;;;;1.50;0.50;;;;;;;;;;5022731;28;20202;-73
2023/01/15 03:46:23;;;;;;;0.77;0.40;;;;;;;;;;5026412;28;20183;-73
2023/01/15 03:48:53;;;;;;;0.33;0.33;;;;;;;;;;5007070;28;20574;-73
2023/01/15 03:51:24;;;;;;;0.57;0.40;;;;;;;;;;5004812;28;20609;-73
2023/01/15 03:53:56;;;;;;;0.70;0.50;;;;;;;;;;5021021;28;20557;-73
2023/01/15 03:56:37;;;;;;;0.40;0.40;;;;;;;;;;5006132;28;20284;-73
2023/01/15 03:59:22;;;;;;;0.93;0.40;;;;;;;;;;5027221;28;20210;-73
2023/01/15 04:01:54;;;;;;;0.40;0.40;;;;;;;;;;5027741;28;20574;-73
2023/01/15 04:04:23;;;;;;;0.93;0.53;;;;;;;;;;5023064;28;20182;-74
2023/01/15 04:06:50;;;;;;;1.03;0.50;;;;;;;;;;5020053;28;20204;-73
2023/01/15 04:09:16;;;;;;;0.40;0.40;;;;;;;;;;5019011;28;20179;-73
2023/01/15 04:11:44;;;;;;;0.50;0.50;;;;;;;;;;5012884;28;20590;-73
2023/01/15 04:14:12;;;;;;;0.40;0.40;;;;;;;;;;5022089;28;20182;-74
2023/01/15 04:16:45;;;;;;;1.43;0.50;;;;;;;;;;5023237;28;20244;-73
2023/01/15 04:19:12;;;;;;;0.40;0.40;;;;;;;;;;5022364;28;20708;-74
2023/01/15 04:21:47;;;;;;;0.40;0.40;;;;;;;;;;5012811;28;20207;-73
2023/01/15 04:24:13;;;;;;;1.40;0.50;;;;;;;;;;5028411;28;20191;-73
2023/01/15 04:26:39;;;;;;;0.77;0.40;;;;;;;;;;5036979;28;20894;-73
2023/01/15 04:29:06;;;;;;;0.40;0.40;;;;;;;;;;5020210;28;20194;-73
2023/01/15 04:31:34;;;;;;;0.30;0.30;;;;;;;;;;5024461;28;20252;-73
2023/01/15 04:34:01;;;;;;;0.47;0.40;;;;;;;;;;5013131;28;20190;-73
2023/01/15 04:36:27;;;;;;;0.30;0.30;;;;;;;;;;5026290;28;20240;-73
2023/01/15 04:38:56;;;;;;;0.73;0.30;;;;;;;;;;5029187;28;20241;-73
2023/01/15 04:44:07;;;;;;;0.53;0.50;;;;;;;;;;5018315;28;20174;-73
2023/01/15 04:46:38;;;;;;;2.60;0.50;;;;;;;;;;5020900;28;20212;-73
2023/01/15 04:49:06;;;;;;;0.57;0.30;;;;;;;;;;5024806;28;20275;-74
2023/01/15 04:51:32;;;;;;;0.30;0.30;;;;;;;;;;5020872;28;21174;-74
2023/01/15 04:54:00;;;;;;;0.80;0.50;;;;;;;;;;5012244;28;20237;-73
2023/01/15 04:56:26;;;;;;;0.50;0.50;;;;;;;;;;5014372;28;20178;-74
2023/01/15 04:58:52;;;;;;;0.73;0.60;;;;;;;;;;5022112;28;20313;-73
2023/01/15 05:01:19;;;;;;;1.70;0.50;;;;;;;;;;5026461;28;20646;-73
2023/01/15 05:03:45;;;;;;;0.30;0.30;;;;;;;;;;5024858;28;20214;-73
2023/01/15 05:06:13;;;;;;;0.40;0.40;;;;;;;;;;5021182;28;20206;-73
2023/01/15 05:08:39;;;;;;;0.30;0.30;;;;;;;;;;5022780;28;20186;-73
2023/01/15 05:11:06;;;;;;;0.40;0.40;;;;;;;;;;5021796;28;20233;-73
2023/01/15 05:13:33;;;;;;;0.40;0.40;;;;;;;;;;5020999;28;20222;-73
2023/01/15 05:16:10;;;;;;;0.50;0.50;;;;;;;;;;5002074;28;20809;-74
2023/01/15 05:18:36;;;;;;;0.40;0.40;;;;;;;;;;5021361;28;20629;-73
2023/01/15 05:21:02;;;;;;;0.63;0.50;;;;;;;;;;5017294;28;20183;-74
2023/01/15 05:23:28;;;;;;;0.50;0.50;;;;;;;;;;5018283;28;20578;-73
2023/01/15 05:25:54;;;;;;;0.40;0.40;;;;;;;;;;5023205;28;20201;-74
2023/01/15 05:28:20;;;;;;;0.57;0.57;;;;;;;;;;5020823;28;20191;-73
2023/01/15 05:30:47;;;;;;;0.40;0.40;;;;;;;;;;5022450;28;20175;-73
2023/01/15 05:33:13;;;;;;;0.97;0.50;;;;;;;;;;5015297;28;20285;-73
2023/01/15 05:35:39;;;;;;;0.40;0.40;;;;;;;;;;5024540;28;20190;-74
2023/01/15 05:38:06;;;;;;;0.47;0.40;;;;;;;;;;5022069;28;20206;-73
2023/01/15 05:40:32;;;;;;;0.63;0.63;;;;;;;;;;5024605;28;20182;-73
2023/01/15 05:42:58;;;;;;;1.43;0.70;;;;;;;;;;5022201;28;20207;-73
2023/01/15 05:45:25;;;;;;;0.67;0.50;;;;;;;;;;5011597;28;20600;-73
2023/01/15 05:47:52;;;;;;;0.60;0.60;;;;;;;;;;5020500;28;20262;-73
2023/01/15 05:50:19;;;;;;;1.03;0.73;;;;;;;;;;5018921;28;20646;-73
2023/01/15 05:52:46;;;;;;;0.90;0.60;;;;;;;;;;5022502;28;20907;-73
2023/01/15 05:55:12;;;;;;;1.03;0.60;;;;;;;;;;5004244;28;20776;-74
2023/01/15 05:57:39;;;;;;;1.00;0.50;;;;;;;;;;5021081;28;20219;-73
2023/01/15 06:00:05;;;;;;;0.63;0.50;;;;;;;;;;5022055;28;20199;-74
2023/01/15 06:02:39;;;;;;;0.40;0.40;;;;;;;;;;5023871;28;20245;-74
2023/01/15 06:05:05;;;;;;;1.40;0.47;;;;;;;;;;5022525;28;20217;-73
2023/01/15 06:07:31;;;;;;;0.40;0.30;;;;;;;;;;5022427;28;20256;-73
2023/01/15 06:09:57;;;;;;;0.50;0.40;;;;;;;;;;5019666;28;20660;-73
2023/01/15 06:12:23;;;;;;;0.40;0.40;;;;;;;;;;5019066;28;20230;-73
2023/01/15 06:14:50;;;;;;;0.30;0.30;;;;;;;;;;5024756;28;20185;-73
2023/01/15 06:17:16;;;;;;;0.63;0.40;;;;;;;;;;5022625;28;20183;-73
2023/01/15 06:19:42;;;;;;;0.50;0.50;;;;;;;;;;5024347;28;20175;-73
2023/01/15 06:22:08;;;;;;;0.60;0.40;;;;;;;;;;5018839;28;20252;-73
2023/01/15 06:24:34;;;;;;;1.33;0.50;;;;;;;;;;5022250;28;20179;-73
2023/01/15 06:27:00;;;;;;;0.60;0.60;;;;;;;;;;5002711;28;20210;-73
2023/01/15 06:29:26;;;;;;;0.57;0.40;;;;;;;;;;5017740;28;20205;-73
2023/01/15 06:31:53;;;;;;;0.97;0.40;;;;;;;;;;5017447;28;20904;-73
2023/01/15 06:34:19;;;;;;;0.50;0.47;;;;;;;;;;5019130;28;20913;-74
2023/01/15 06:36:45;;;;;;;0.73;0.50;;;;;;;;;;5022475;28;20222;-74
2023/01/15 06:39:11;;;;;;;0.60;0.60;;;;;;;;;;5012428;28;20214;-73
2023/01/15 06:47:20;;;;;;;0.50;0.50;;;;;;;;;;5021788;28;20190;-74
2023/01/15 06:49:47;;;;;;;0.87;0.80;;;;;;;;;;5021062;28;20282;-74
2023/01/15 06:52:13;;;;;;;0.83;0.50;;;;;;;;;;5020433;28;20252;-73
2023/01/15 06:54:39;;;;;;;0.50;0.50;;;;;;;;;;5018589;28;20190;-74
2023/01/15 06:57:05;;;;;;;0.50;0.50;;;;;;;;;;5021328;28;20704;-73
2023/01/15 06:59:31;;;;;;;0.50;0.50;;;;;;;;;;5023224;28;20309;-74
2023/01/15 07:01:57;;;;;;;0.60;0.60;;;;;;;;;;5018872;28;20199;-74
2023/01/15 07:04:24;;;;;;;0.37;0.33;;;;;;;;;;5012336;28;20191;-73
2023/01/15 07:06:50;;;;;;;0.87;0.60;;;;;;;;;;5023210;28;20190;-73
2023/01/15 07:09:16;;;;;;;0.57;0.57;;;;;;;;;;5016462;28;20237;-73
2023/01/15 07:11:48;;;;;;;0.60;0.60;;;;;;;;;;5027129;28;20186;-74
2023/01/15 07:14:18;;;;;;;0.63;0.60;;;;;;;;;;5026513;28;20194;-73
2023/01/15 07:16:45;;;;;;;0.40;0.40;;;;;;;;;;5011810;28;20190;-73
2023/01/15 07:19:11;;;;;;;0.63;0.50;;;;;;;;;;5021815;28;20215;-73
2023/01/15 07:21:37;;;;;;;1.00;0.50;;;;;;;;;;5020888;28;20185;-74
2023/01/15 07:24:04;;;;;;;0.50;0.50;;;;;;;;;;5026629;28;20193;-74
2023/01/15 07:26:30;;;;;;;0.70;0.50;;;;;;;;;;5025980;28;20170;-73
2023/01/15 07:28:56;;;;;;;0.70;0.40;;;;;;;;;;5029058;28;20816;-73
2023/01/15 07:31:22;;;;;;;0.80;0.40;;;;;;;;;;5023831;28;20182;-73
2023/01/15 07:33:48;;;;;;;0.50;0.50;;;;;;;;;;5027329;28;20206;-73
2023/01/15 07:36:15;;;;;;;0.57;0.50;;;;;;;;;;5019156;28;20245;-74
2023/01/15 07:38:41;;;;;;;1.53;0.60;;;;;;;;;;5024101;28;20206;-74
2023/01/15 07:52:07;;;;;;;1.70;0.60;;;;;;;;;;5021945;28;20202;-73
2023/01/15 07:54:33;;;;;;;0.70;0.70;;;;;;;;;;5022952;28;20179;-73
2023/01/15 07:57:00;;;;;;;0.80;0.80;;;;;;;;;;5023100;28;20195;-74
2023/01/15 07:59:26;;;;;;;0.70;0.70;;;;;;;;;;5015731;28;20587;-74
2023/01/15 08:01:52;;;;;;;1.40;1.30;;;;;;;;;;5019156;28;20194;-73
2023/01/15 08:04:18;;;;;;;2.23;1.83;;;;;;;;;;5019672;28;20174;-73
2023/01/15 08:06:44;;;;;;;3.47;2.20;;;;;;;;;;5025641;28;20231;-73
2023/01/15 08:09:11;;;;;;;2.40;1.80;;;;;;;;;;5028018;28;20199;-73
2023/01/15 08:17:07;;;;;;;1.20;0.90;;;;;;;;;;5022076;28;20633;-74
2023/01/15 08:19:34;;;;;;;1.60;0.90;;;;;;;;;;5024220;28;20210;-73
2023/01/15 08:22:00;;;;;;;1.70;0.90;;;;;;;;;;5018470;28;20202;-74
2023/01/15 08:24:27;;;;;;;1.57;1.00;;;;;;;;;;5018141;28;20188;-74
2023/01/15 08:26:53;;;;;;;1.40;1.13;;;;;;;;;;5006295;28;20690;-72
2023/01/15 08:29:20;;;;;;;2.17;1.20;;;;;;;;;;5022447;28;20298;-74
2023/01/15 08:31:47;;;;;;;2.17;1.57;;;;;;;;;;5020125;28;20250;-74
2023/01/15 08:34:13;;;;;;;3.00;1.90;;;;;;;;;;5024112;28;20180;-75
2023/01/15 08:36:39;;;;;;;7.13;2.73;;;;;;;;;;5019301;28;20205;-76
2023/01/15 08:39:06;;;;;;;4.80;2.93;;;;;;;;;;5024762;28;20257;-73
2023/01/15 08:41:32;;;;;;;4.40;2.30;;;;;;;;;;5017783;28;20192;-75
2023/01/15 08:43:59;;;;;;;13.27;7.30;;;;;;;;;;5024098;28;20186;-74
2023/01/15 08:46:25;;;;;;;12.73;6.33;;;;;;;;;;5020560;28;20549;-73
2023/01/15 08:48:52;;;;;;;3.30;1.77;;;;;;;;;;5023503;28;20186;-74
2023/01/15 08:51:26;;;;;;;2.70;1.60;;;;;;;;;;5024595;28;20183;-76
2023/01/15 08:53:55;;;;;;;2.90;1.70;;;;;;;;;;5024108;28;20187;-76
2023/01/15 08:56:24;;;;;;;1.60;1.10;;;;;;;;;;5022490;28;20654;-77
2023/01/15 08:58:50;;;;;;;1.93;1.20;;;;;;;;;;5008081;28;20792;-74
2023/01/15 09:01:17;;;;;;;2.10;1.33;;;;;;;;;;5017370;28;20562;-75
2023/01/15 09:03:46;;;;;;;1.00;0.80;;;;;;;;;;5012293;28;20204;-74
2023/01/15 09:06:13;;;;;;;3.80;1.60;;;;;;;;;;5017178;28;20182;-77
2023/01/15 09:08:39;;;;;;;4.13;1.70;;;;;;;;;;5015046;28;20625;-78
2023/01/15 09:11:11;;;;;;;1.43;0.90;;;;;;;;;;5018459;28;20194;-77
2023/01/15 09:13:40;;;;;;;5.90;2.50;;;;;;;;;;5020365;28;20302;-74
2023/01/15 09:16:10;;;;;;;4.37;2.07;;;;;;;;;;4999018;28;20183;-75
2023/01/15 09:18:48;;;;;;;2.40;1.20;;;;;;;;;;5013688;28;20901;-74
2023/01/15 09:21:15;;;;;;;2.00;1.47;;;;;;;;;;5016123;28;20182;-74
2023/01/15 09:23:42;;;;;;;8.23;3.43;;;;;;;;;;5019016;28;20206;-75
2023/01/15 09:26:33;;;;;;;3.93;2.20;;;;;;;;;;5014321;28;20198;-74
2023/01/15 09:29:01;;;;;;;3.43;1.43;;;;;;;;;;5016609;28;20206;-75
2023/01/15 09:31:30;;;;;;;2.50;1.67;;;;;;;;;;5015202;28;20182;-78
2023/01/15 09:33:57;;;;;;;1.20;1.10;;;;;;;;;;5013453;28;20190;-74
2023/01/15 09:36:26;;;;;;;5.33;2.87;;;;;;;;;;5016818;28;20240;-74
2023/01/15 09:38:54;;;;;;;3.70;1.97;;;;;;;;;;5018479;28;20209;-74
2023/01/15 09:44:37;;;;;;;2.03;1.20;;;;;;;;;;5016114;28;20214;-73
2023/01/15 09:47:10;;;;;;;3.73;1.50;;;;;;;;;;5005370;28;20199;-74
2023/01/15 09:50:00;;;;;;;4.33;1.80;;;;;;;;;;5017657;28;20309;-73
2023/01/15 09:52:29;;;;;;;2.73;1.10;;;;;;;;;;4985170;28;20883;-73
2023/01/15 09:54:55;;;;;;;1.50;1.10;;;;;;;;;;5020548;28;20182;-73
2023/01/15 09:57:23;;;;;;;1.30;1.13;;;;;;;;;;5017122;28;20724;-73
2023/01/15 09:59:50;;;;;;;5.07;1.57;;;;;;;;;;5034606;28;20186;-73
2023/01/15 10:02:25;;;;;;;3.43;1.57;;;;;;;;;;5015676;28;20323;-74
2023/01/15 10:04:56;;;;;;;2.90;1.40;;;;;;;;;;5038847;28;20204;-73
2023/01/15 10:07:25;;;;;;;2.07;1.60;;;;;;;;;;5016627;28;20661;-73
2023/01/15 10:09:57;;;;;;;1.70;1.20;;;;;;;;;;5016840;28;20179;-73
2023/01/15 10:12:38;;;;;;;2.07;1.20;;;;;;;;;;5015551;28;20218;-73
2023/01/15 10:15:20;;;;;;;3.77;1.90;;;;;;;;;;5015891;28;20274;-73
2023/01/15 10:17:52;;;;;;;2.87;1.30;;;;;;;;;;5016262;28;20296;-73
2023/01/15 10:20:21;;;;;;;1.93;1.10;;;;;;;;;;5015389;28;20171;-73
2023/01/15 10:22:47;;;;;;;2.53;1.00;;;;;;;;;;5014992;28;20219;-74
2023/01/15 10:25:21;;;;;;;3.10;1.30;;;;;;;;;;5014961;28;20195;-74
2023/01/15 10:27:50;;;;;;;2.00;0.93;;;;;;;;;;5014882;28;20186;-73
2023/01/15 10:30:21;;;;;;;2.93;1.40;;;;;;;;;;5015587;28;20190;-73
2023/01/15 10:32:52;;;;;;;4.07;1.97;;;;;;;;;;5016978;28;20293;-73
2023/01/15 10:35:22;;;;;;;2.17;1.40;;;;;;;;;;5014027;28;20206;-73
2023/01/15 10:38:00;;;;;;;3.30;2.07;;;;;;;;;;5014873;28;20928;-73
2023/01/15 10:40:44;;;;;;;1.73;1.07;;;;;;;;;;5022032;28;20664;-73
2023/01/15 10:43:10;;;;;;;3.10;1.10;;;;;;;;;;5014783;28;20217;-73
2023/01/15 10:45:39;;;;;;;3.27;2.47;;;;;;;;;;5015036;28;20183;-73
2023/01/15 10:48:11;;;;;;;1.97;1.50;;;;;;;;;;5015337;28;20187;-74
2023/01/15 10:50:38;;;;;;;1.70;1.10;;;;;;;;;;5017463;28;20200;-73
2023/01/15 10:53:10;;;;;;;2.03;1.13;;;;;;;;;;4997474;28;20215;-74
2023/01/15 10:55:42;;;;;;;2.40;1.50;;;;;;;;;;5019395;28;20178;-73
2023/01/15 10:58:13;;;;;;;2.87;1.13;;;;;;;;;;5021642;28;20259;-73
2023/01/15 11:00:39;;;;;;;0.77;0.63;;;;;;;;;;5017818;28;20571;-72
2023/01/15 11:03:16;;;;;;;0.97;0.67;;;;;;;;;;5018668;28;20689;-75
2023/01/15 11:05:46;;;;;;;1.50;0.73;;;;;;;;;;5016999;28;20187;-75
2023/01/15 11:08:31;;;;;;;1.30;0.83;;;;;;;;;;5015862;28;20206;-76
2023/01/15 11:11:04;;;;;;;0.63;0.60;;;;;;;;;;5022034;28;20211;-72
2023/01/15 11:21:48;;;;;;;1.37;0.60;;;;;;;;;;5015607;28;20191;-73
2023/01/15 11:24:15;;;;;;;1.10;0.50;;;;;;;;;;5021017;28;20193;-72
2023/01/15 11:26:45;;;;;;;0.50;0.50;;;;;;;;;;5022192;28;20185;-72
2023/01/15 11:29:13;;;;;;;2.00;0.70;;;;;;;;;;5016637;28;20187;-73
2023/01/15 11:31:40;;;;;;;3.20;1.10;;;;;;;;;;5015185;28;20184;-73
2023/01/15 11:34:16;;;;;;;2.30;1.07;;;;;;;;;;5024265;28;20190;-75
2023/01/15 11:36:42;;;;;;;3.70;2.23;;;;;;;;;;5020196;28;20201;-72
2023/01/15 11:39:26;;;;;;;2.30;1.20;;;;;;;;;;5025427;28;20245;-72
2023/01/15 11:51:08;;;;;;;2.43;1.17;;;;;;;;;;5011401;28;20233;-72
2023/01/15 11:53:38;;;;;;;2.43;1.60;;;;;;;;;;5005624;28;21252;-72
2023/01/15 11:56:06;;;;;;;0.70;0.70;;;;;;;;;;5013784;28;20834;-73
2023/01/15 11:58:33;;;;;;;0.53;0.53;;;;;;;;;;5023228;28;20218;-74
2023/01/15 12:01:00;;;;;;;1.87;1.33;;;;;;;;;;5020169;28;20333;-73
2023/01/15 12:03:28;;;;;;;1.30;0.90;;;;;;;;;;5021112;28;20207;-73
2023/01/15 12:05:57;;;;;;;0.87;0.73;;;;;;;;;;5025042;28;20649;-73
2023/01/15 12:08:32;;;;;;;1.33;0.80;;;;;;;;;;5027423;28;20171;-73
2023/01/15 12:11:04;;;;;;;1.30;0.60;;;;;;;;;;5022880;28;20268;-76
2023/01/15 12:13:30;;;;;;;2.60;0.80;;;;;;;;;;5024237;28;20214;-74
2023/01/15 12:16:04;;;;;;;1.50;0.80;;;;;;;;;;5024659;28;20262;-73
2023/01/15 12:18:33;;;;;;;2.83;0.90;;;;;;;;;;5023307;28;20202;-75
2023/01/15 12:21:18;;;;;;;2.13;1.00;;;;;;;;;;5017330;28;20677;-74
2023/01/15 12:24:04;;;;;;;6.73;4.07;;;;;;;;;;5026773;28;20252;-72
2023/01/15 12:26:31;;;;;;;7.13;4.50;;;;;;;;;;5022253;28;20705;-74
2023/01/15 12:28:57;;;;;;;7.07;3.37;;;;;;;;;;5027196;28;20187;-74
2023/01/15 12:31:28;;;;;;;4.87;2.30;;;;;;;;;;5016080;28;20252;-75
2023/01/15 12:34:02;;;;;;;7.87;5.00;;;;;;;;;;5022156;28;20190;-73
2023/01/15 12:36:31;;;;;;;11.47;8.60;;;;;;;;;;5002066;28;20199;-73
2023/01/15 12:39:02;;;;;;;3.60;2.53;;;;;;;;;;5025915;28;20259;-72
2023/01/15 12:44:59;;;;;;;7.47;4.67;;;;;;;;;;5025959;28;20179;-73
2023/01/15 12:47:14;;;;;;;3.50;3.20;;;;;;;;;;5022723;28;20207;-73
2023/01/15 12:49:45;;;;;;;1.50;1.20;;;;;;;;;;5023013;28;20232;-72
2023/01/15 12:52:16;;;;;;;1.03;0.93;;;;;;;;;;5014378;28;20214;-73
2023/01/15 12:54:46;;;;;;;1.00;0.90;;;;;;;;;;5015369;28;20218;-73
2023/01/15 12:57:17;;;;;;;2.93;2.30;;;;;;;;;;5020925;28;20186;-73
2023/01/15 12:59:43;;;;;;;2.47;1.80;;;;;;;;;;5005672;28;20218;-76
2023/01/15 13:02:18;;;;;;;1.10;1.00;;;;;;;;;;5022973;28;20211;-74
2023/01/15 13:04:59;;;;;;;1.10;0.80;;;;;;;;;;5019732;28;20170;-72
2023/01/15 13:07:41;;;;;;;1.23;0.80;;;;;;;;;;5019424;28;20264;-73
2023/01/15 13:10:07;;;;;;;0.77;0.77;;;;;;;;;;5022508;28;20178;-72
2023/01/15 13:12:34;;;;;;;2.30;1.00;;;;;;;;;;5018343;28;20217;-73
2023/01/15 13:15:01;;;;;;;2.30;0.90;;;;;;;;;;5021865;28;20187;-72
2023/01/15 13:17:27;;;;;;;2.93;1.30;;;;;;;;;;5018481;28;20661;-73
2023/01/15 13:20:14;;;;;;;1.77;1.13;;;;;;;;;;5014701;28;20285;-73
2023/01/15 13:22:45;;;;;;;3.10;1.40;;;;;;;;;;4997264;28;20203;-72
2023/01/15 13:25:14;;;;;;;1.90;1.20;;;;;;;;;;5012087;28;20193;-73
2023/01/15 13:28:05;;;;;;;2.47;1.50;;;;;;;;;;5011347;28;20772;-72
2023/01/15 13:30:51;;;;;;;2.77;1.50;;;;;;;;;;5014497;28;20269;-73
2023/01/15 13:33:24;;;;;;;4.17;2.00;;;;;;;;;;5018204;28;20213;-73
2023/01/15 13:35:53;;;;;;;3.37;1.40;;;;;;;;;;5021208;28;20697;-73
2023/01/15 13:38:22;;;;;;;3.07;1.67;;;;;;;;;;5020240;28;20260;-73
2023/01/15 13:40:51;;;;;;;2.63;1.57;;;;;;;;;;5018462;28;20537;-73
2023/01/15 13:43:38;;;;;;;1.57;1.20;;;;;;;;;;5021737;28;20210;-73
2023/01/15 13:46:06;;;;;;;4.70;1.57;;;;;;;;;;5013311;28;20185;-73
2023/01/15 13:48:35;;;;;;;2.97;1.90;;;;;;;;;;5015371;28;20198;-73
2023/01/15 13:51:04;;;;;;;4.57;1.60;;;;;;;;;;5012904;28;20210;-72
2023/01/15 13:53:37;;;;;;;4.53;1.20;;;;;;;;;;5016369;28;20207;-72
2023/01/15 13:56:06;;;;;;;1.80;1.10;;;;;;;;;;5020480;28;20273;-77
2023/01/15 13:58:33;;;;;;;1.70;0.87;;;;;;;;;;5018329;28;20285;-73
2023/01/15 14:01:07;;;;;;;4.70;1.10;;;;;;;;;;5017884;28;20933;-73
2023/01/15 14:03:36;;;;;;;1.63;1.10;;;;;;;;;;5022461;28;20194;-73
2023/01/15 14:06:07;;;;;;;2.47;1.00;;;;;;;;;;5017961;28;20245;-73
2023/01/15 14:08:41;;;;;;;2.67;1.30;;;;;;;;;;5018946;28;20233;-73
2023/01/15 14:11:26;;;;;;;4.87;1.10;;;;;;;;;;5018416;28;20180;-73
2023/01/15 14:14:01;;;;;;;4.00;1.50;;;;;;;;;;5017012;28;20361;-73
2023/01/15 14:16:28;;;;;;;2.37;1.30;;;;;;;;;;5036853;28;20189;-73
2023/01/15 14:18:58;;;;;;;2.67;1.03;;;;;;;;;;5016895;28;20210;-74
2023/01/15 14:21:30;;;;;;;4.03;1.03;;;;;;;;;;5016586;28;20187;-74
2023/01/15 14:24:15;;;;;;;4.70;1.40;;;;;;;;;;5018857;28;20221;-75
2023/01/15 14:26:41;;;;;;;2.90;0.97;;;;;;;;;;5019421;28;20205;-74
2023/01/15 14:29:13;;;;;;;1.67;0.87;;;;;;;;;;5016604;28;20194;-74
2023/01/15 14:31:39;;;;;;;1.90;1.03;;;;;;;;;;5020726;28;20316;-74
2023/01/15 14:34:27;;;;;;;3.10;1.30;;;;;;;;;;5019076;28;20281;-74
2023/01/15 14:36:56;;;;;;;2.90;1.27;;;;;;;;;;5020374;28;20273;-74
2023/01/15 14:39:41;;;;;;;5.03;1.30;;;;;;;;;;5019240;28;20277;-74
2023/01/15 14:44:57;;;;;;;2.17;1.20;;;;;;;;;;5017598;28;20217;-74
2023/01/15 14:47:26;;;;;;;3.93;1.33;;;;;;;;;;5013500;28;20179;-74
2023/01/15 14:50:11;;;;;;;3.23;1.27;;;;;;;;;;5014885;28;20677;-74
2023/01/15 14:52:37;;;;;;;4.20;1.30;;;;;;;;;;5017292;28;20207;-74
2023/01/15 14:55:08;;;;;;;4.57;1.50;;;;;;;;;;4998024;28;20619;-74
2023/01/15 14:57:36;;;;;;;4.33;1.23;;;;;;;;;;5018871;28;20191;-75
2023/01/15 15:00:04;;;;;;;4.30;1.47;;;;;;;;;;5012644;28;20212;-74
2023/01/15 15:02:39;;;;;;;5.40;1.37;;;;;;;;;;5021705;28;20198;-74
2023/01/15 15:05:09;;;;;;;3.07;1.70;;;;;;;;;;5011879;28;20221;-74
2023/01/15 15:07:39;;;;;;;4.07;2.00;;;;;;;;;;5012809;28;20829;-74
2023/01/15 15:10:11;;;;;;;5.97;1.80;;;;;;;;;;5015810;28;20265;-75
2023/01/15 15:13:02;;;;;;;4.57;1.70;;;;;;;;;;4999578;28;20251;-74
2023/01/15 15:15:47;;;;;;;6.30;2.53;;;;;;;;;;5022562;28;20228;-74
2023/01/15 15:18:14;;;;;;;5.30;1.93;;;;;;;;;;5019292;28;20776;-74
2023/01/15 15:20:48;;;;;;;5.70;2.13;;;;;;;;;;5017511;28;20646;-74
2023/01/15 15:23:38;;;;;;;6.37;2.00;;;;;;;;;;5021196;28;20305;-74
2023/01/15 15:26:05;;;;;;;4.60;1.60;;;;;;;;;;5013217;28;20183;-74
2023/01/15 15:28:31;;;;;;;2.60;1.60;;;;;;;;;;5018534;28;20186;-74
2023/01/15 15:31:01;;;;;;;4.87;1.60;;;;;;;;;;5026864;28;20664;-74
2023/01/15 15:33:32;;;;;;;3.47;1.50;;;;;;;;;;5020161;28;20245;-75
2023/01/15 15:36:00;;;;;;;5.13;2.07;;;;;;;;;;5018975;28;20423;-74
2023/01/15 15:38:26;;;;;;;3.03;1.80;;;;;;;;;;5023810;28;20202;-74
2023/01/15 15:41:01;;;;;;;5.77;2.30;;;;;;;;;;5022880;28;20549;-74
2023/01/15 15:49:13;;;;;;;4.43;1.53;;;;;;;;;;5023575;28;20198;-74
2023/01/15 15:51:47;;;;;;;5.60;1.50;;;;;;;;;;5019269;28;20194;-74
2023/01/15 15:54:20;;;;;;;3.13;1.33;;;;;;;;;;5017612;28;20210;-75
2023/01/15 15:56:49;;;;;;;3.07;1.50;;;;;;;;;;5008310;28;20202;-74
2023/01/15 15:59:35;;;;;;;2.80;1.50;;;;;;;;;;5025073;28;20207;-74
2023/01/15 16:02:20;;;;;;;6.70;1.57;;;;;;;;;;5017496;28;20874;-74
2023/01/15 16:04:47;;;;;;;3.77;1.33;;;;;;;;;;5028261;28;20185;-74